createdAt,value
2022-07-31T00:00:50.503Z,100718.19
2022-07-31T00:05:52.055Z,100711.72
2022-07-31T00:10:53.540Z,100711.53
2022-07-31T00:15:55.113Z,100712.66
2022-07-31T00:20:56.673Z,100706.53
2022-07-31T00:25:58.247Z,100708.72
2022-07-31T00:30:59.815Z,100704.84
2022-07-31T00:36:01.470Z,100703.75
2022-07-31T00:41:03.477Z,100683.78
2022-07-31T00:46:05.038Z,100679.78
2022-07-31T00:51:06.718Z,100692.38
2022-07-31T00:56:08.277Z,100686.00
2022-07-31T01:01:09.861Z,100680.66
2022-07-31T01:06:11.550Z,100676.03
2022-07-31T01:11:18.232Z,100678.53
2022-07-31T01:16:22.160Z,100682.50
2022-07-31T01:21:36.346Z,100678.13
2022-07-31T01:26:51.104Z,100679.41
2022-07-31T01:31:57.229Z,100678.28
2022-07-31T01:37:06.853Z,100671.94
2022-07-31T01:42:16.549Z,100666.03
2022-07-31T01:47:21.573Z,100659.00
2022-07-31T01:52:25.785Z,100655.84
2022-07-31T01:57:29.516Z,100658.88
2022-07-31T02:02:31.169Z,100662.69
2022-07-31T02:07:33.693Z,100666.63
2022-07-31T02:12:36.383Z,100661.34
2022-07-31T02:17:38.989Z,100661.88
2022-07-31T02:22:40.499Z,100665.72
2022-07-31T02:27:57.375Z,100656.66
2022-07-31T02:33:02.045Z,100654.84
2022-07-31T02:38:04.946Z,100660.97
2022-07-31T02:43:07.282Z,100656.34
2022-07-31T02:48:09.598Z,100653.19
2022-07-31T02:53:11.503Z,100656.19
2022-07-31T02:58:13.132Z,100656.50
2022-07-31T03:03:14.693Z,100655.41
2022-07-31T03:08:16.145Z,100647.78
2022-07-31T03:13:19.756Z,100644.38
2022-07-31T03:18:21.762Z,100632.66
2022-07-31T03:23:25.621Z,100634.19
2022-07-31T03:28:27.684Z,100636.13
2022-07-31T03:33:29.397Z,100638.97
2022-07-31T03:38:40.485Z,100632.31
2022-07-31T03:43:48.295Z,100631.47
2022-07-31T03:48:50.193Z,100630.66
2022-07-31T03:53:51.780Z,100629.75
2022-07-31T03:58:53.681Z,100633.63
2022-07-31T04:03:59.985Z,100632.66
2022-07-31T04:09:01.573Z,100638.03
2022-07-31T04:14:16.925Z,100633.66
2022-07-31T04:19:18.406Z,100639.56
2022-07-31T04:24:19.858Z,100639.09
2022-07-31T04:29:21.377Z,100639.91
2022-07-31T04:34:22.968Z,100636.41
2022-07-31T04:39:24.522Z,100634.78
2022-07-31T04:44:26.015Z,100644.03
2022-07-31T04:49:27.998Z,100644.59
2022-07-31T04:54:29.555Z,100643.72
2022-07-31T04:59:59.503Z,100639.34
2022-07-31T05:04:57.209Z,100628.03
2022-07-31T05:09:58.949Z,100623.31
2022-07-31T05:15:00.545Z,100623.97
2022-07-31T05:20:02.237Z,100618.97
2022-07-31T05:25:04.107Z,100620.22
2022-07-31T05:30:06.259Z,100619.84
2022-07-31T05:35:08.251Z,100616.59
2022-07-31T05:40:11.732Z,100612.94
2022-07-31T05:45:13.252Z,100612.09
2022-07-31T05:50:14.907Z,100609.53
2022-07-31T05:55:16.408Z,100611.28
2022-07-31T06:00:18.056Z,100608.56
2022-07-31T06:05:19.726Z,100610.78
2022-07-31T06:10:21.330Z,100604.44
2022-07-31T06:15:22.983Z,100606.25
2022-07-31T06:20:25.056Z,100612.03
2022-07-31T06:25:32.043Z,100617.81
2022-07-31T06:30:40.800Z,100608.00
2022-07-31T06:35:42.398Z,100604.88
2022-07-31T06:40:43.894Z,100610.25
2022-07-31T06:45:52.063Z,100605.88
2022-07-31T06:51:08.513Z,100610.41
2022-07-31T06:56:15.498Z,100606.03
2022-07-31T07:01:17.048Z,100604.09
2022-07-31T07:06:18.899Z,100601.50
2022-07-31T07:11:20.896Z,100596.44
2022-07-31T07:16:22.368Z,100588.16
2022-07-31T07:21:24.006Z,100585.69
2022-07-31T07:26:25.534Z,100587.38
2022-07-31T07:31:26.983Z,100582.28
2022-07-31T07:36:28.539Z,100574.63
2022-07-31T07:41:30.131Z,100576.00
2022-07-31T07:46:31.605Z,100564.19
2022-07-31T07:51:33.128Z,100564.53
2022-07-31T07:56:34.745Z,100550.81
2022-07-31T08:01:36.228Z,100543.47
2022-07-31T08:06:37.831Z,100551.84
2022-07-31T08:11:39.267Z,100546.69
2022-07-31T08:16:40.722Z,100538.72
2022-07-31T08:21:43.079Z,100532.88
2022-07-31T08:26:44.639Z,100529.25
2022-07-31T08:31:49.549Z,100518.78
2022-07-31T08:36:51.258Z,100520.22
2022-07-31T08:41:52.846Z,100524.59
2022-07-31T08:46:57.154Z,100523.03
2022-07-31T08:52:01.036Z,100518.44
2022-07-31T08:57:03.942Z,100512.22
2022-07-31T09:02:06.016Z,100508.63
2022-07-31T09:07:13.557Z,100515.88
2022-07-31T09:12:15.152Z,100509.81
2022-07-31T09:17:36.184Z,100506.28
2022-07-31T09:22:37.654Z,100497.63
2022-07-31T09:27:39.615Z,100489.28
2022-07-31T09:32:41.335Z,100482.88
2022-07-31T09:37:46.824Z,100491.59
2022-07-31T09:42:55.340Z,100475.16
2022-07-31T09:48:08.225Z,100487.69
2022-07-31T09:53:09.918Z,100471.28
2022-07-31T09:58:11.442Z,100463.03
2022-07-31T10:03:14.468Z,100461.06
2022-07-31T10:08:17.543Z,100452.13
2022-07-31T10:13:20.735Z,100450.59
2022-07-31T10:18:36.488Z,100446.63
2022-07-31T10:23:41.106Z,100443.66
2022-07-31T10:28:43.202Z,100438.53
2022-07-31T10:33:45.325Z,100433.44
2022-07-31T10:38:58.452Z,100435.19
2022-07-31T10:44:05.539Z,100435.22
2022-07-31T10:49:08.805Z,100423.72
2022-07-31T10:54:10.624Z,100426.59
2022-07-31T10:59:13.032Z,100431.78
2022-07-31T11:04:30.222Z,100406.81
2022-07-31T11:09:31.697Z,100420.03
2022-07-31T11:14:37.325Z,100411.25
2022-07-31T11:19:43.776Z,100409.38
2022-07-31T11:24:55.427Z,100399.00
2022-07-31T11:30:09.129Z,100395.28
2022-07-31T11:35:29.529Z,100388.34
2022-07-31T11:40:32.333Z,100389.72
2022-07-31T11:45:33.985Z,100380.19
2022-07-31T11:50:42.837Z,100366.19
2022-07-31T11:56:04.714Z,100366.78
2022-07-31T12:01:06.353Z,100360.84
2022-07-31T12:06:10.032Z,100373.69
2022-07-31T12:11:12.138Z,100364.63
2022-07-31T12:16:15.355Z,100360.16
2022-07-31T12:21:18.494Z,100355.91
2022-07-31T12:26:29.169Z,100368.53
2022-07-31T12:31:43.215Z,100361.88
2022-07-31T12:36:44.691Z,100353.69
2022-07-31T12:41:46.178Z,100340.25
2022-07-31T12:46:47.652Z,100343.56
2022-07-31T12:51:49.190Z,100339.69
2022-07-31T12:56:50.665Z,100332.97
2022-07-31T13:01:52.145Z,100324.63
2022-07-31T13:06:53.690Z,100326.16
2022-07-31T13:11:57.954Z,100312.78
2022-07-31T13:16:59.802Z,100315.19
2022-07-31T13:22:01.368Z,100318.34
2022-07-31T13:27:03.231Z,100308.06
2022-07-31T13:32:05.315Z,100324.34
2022-07-31T13:37:07.025Z,100308.19
2022-07-31T13:42:08.854Z,100304.53
2022-07-31T13:47:10.520Z,100297.94
2022-07-31T13:52:12.023Z,100290.03
2022-07-31T13:57:13.489Z,100295.13
2022-07-31T14:02:15.249Z,100298.41
2022-07-31T14:07:17.171Z,100288.63
2022-07-31T14:12:18.730Z,100283.44
2022-07-31T14:17:20.177Z,100275.88
2022-07-31T14:22:21.646Z,100270.34
2022-07-31T14:27:23.166Z,100287.03
2022-07-31T14:32:24.706Z,100275.00
2022-07-31T14:37:26.373Z,100282.91
2022-07-31T14:42:27.930Z,100275.84
2022-07-31T14:47:31.266Z,100263.97
2022-07-31T14:52:32.761Z,100261.25
2022-07-31T14:57:34.423Z,100259.19
2022-07-31T15:02:35.976Z,100261.00
2022-07-31T15:07:43.896Z,100261.00
2022-07-31T15:12:47.590Z,100259.69
2022-07-31T15:17:49.069Z,100267.66
2022-07-31T15:22:50.693Z,100261.00
2022-07-31T15:27:52.209Z,100267.03
2022-07-31T15:32:53.765Z,100263.63
2022-07-31T15:37:55.238Z,100268.31
2022-07-31T15:42:56.681Z,100255.06
2022-07-31T15:47:58.178Z,100258.94
2022-07-31T15:52:59.666Z,100256.00
2022-07-31T15:58:02.951Z,100253.44
2022-07-31T16:03:04.828Z,100263.78
2022-07-31T16:08:34.425Z,100260.78
2022-07-31T16:13:28.860Z,100252.19
2022-07-31T16:18:30.426Z,100257.13
2022-07-31T16:23:32.138Z,100257.28
2022-07-31T16:28:33.591Z,100257.25
2022-07-31T16:33:35.123Z,100243.66
2022-07-31T16:38:36.726Z,100241.00
2022-07-31T16:43:47.441Z,100242.03
2022-07-31T16:48:53.019Z,100235.66
2022-07-31T16:54:13.662Z,100238.72
2022-07-31T16:59:16.179Z,100241.78
2022-07-31T17:04:18.029Z,100236.53
2022-07-31T17:09:19.755Z,100246.19
2022-07-31T17:14:24.006Z,100235.41
2022-07-31T17:19:41.051Z,100248.91
2022-07-31T17:24:44.979Z,100238.41
2022-07-31T17:29:46.568Z,100250.44
2022-07-31T17:34:48.083Z,100251.34
2022-07-31T17:39:49.538Z,100250.09
2022-07-31T17:44:54.867Z,100256.94
2022-07-31T17:49:56.957Z,100265.59
2022-07-31T17:54:58.537Z,100276.78
2022-07-31T18:00:01.013Z,100278.59
2022-07-31T18:05:02.592Z,100276.41
2022-07-31T18:10:06.140Z,100286.94
2022-07-31T18:15:09.306Z,100280.31
2022-07-31T18:20:11.209Z,100287.31
2022-07-31T18:25:12.698Z,100291.84
2022-07-31T18:30:14.293Z,100296.59
2022-07-31T18:35:15.902Z,100301.34
2022-07-31T18:40:17.362Z,100309.16
2022-07-31T18:45:18.918Z,100314.53
2022-07-31T18:51:00.504Z,100308.63
2022-07-31T18:55:43.375Z,100316.13
2022-07-31T19:00:44.891Z,100307.91
2022-07-31T19:05:46.506Z,100303.41
2022-07-31T19:10:49.000Z,100307.25
2022-07-31T19:15:51.651Z,100308.41
2022-07-31T19:20:58.852Z,100317.81
2022-07-31T19:26:14.660Z,100314.78
2022-07-31T19:31:16.149Z,100326.69
2022-07-31T19:36:17.578Z,100332.56
2022-07-31T19:41:19.018Z,100333.22
2022-07-31T19:46:20.588Z,100341.16
2022-07-31T19:51:22.166Z,100343.44
2022-07-31T19:56:23.676Z,100347.97
2022-07-31T20:01:25.172Z,100351.91
2022-07-31T20:06:28.156Z,100353.78
2022-07-31T20:11:30.473Z,100357.13
2022-07-31T20:16:31.921Z,100362.13
2022-07-31T20:21:35.317Z,100366.75
2022-07-31T20:26:37.232Z,100371.72
2022-07-31T20:31:38.725Z,100375.69
2022-07-31T20:36:40.269Z,100373.44
2022-07-31T20:41:41.746Z,100377.19
2022-07-31T20:46:43.273Z,100373.47
2022-07-31T20:51:44.730Z,100377.88
2022-07-31T20:56:46.246Z,100387.19
2022-07-31T21:01:47.749Z,100383.25
2022-07-31T21:06:49.325Z,100393.81
2022-07-31T21:11:50.754Z,100396.13
2022-07-31T21:16:52.196Z,100400.47
2022-07-31T21:21:53.754Z,100400.81
2022-07-31T21:26:59.873Z,100406.00
2022-07-31T21:32:02.094Z,100406.22
2022-07-31T21:37:04.185Z,100418.22
2022-07-31T21:42:08.618Z,100421.72
2022-07-31T21:47:13.472Z,100420.66
2022-07-31T21:52:15.291Z,100422.28
2022-07-31T21:57:16.783Z,100425.59
2022-07-31T22:02:18.313Z,100423.53
2022-07-31T22:07:19.762Z,100427.91
2022-07-31T22:12:21.210Z,100432.47
2022-07-31T22:17:22.732Z,100436.03
2022-07-31T22:22:28.956Z,100440.56
2022-07-31T22:27:30.783Z,100445.94
2022-07-31T22:32:32.357Z,100451.84
2022-07-31T22:37:33.954Z,100456.19
2022-07-31T22:42:35.939Z,100459.59
2022-07-31T22:47:37.688Z,100460.59
2022-07-31T22:52:40.250Z,100458.72
2022-07-31T22:57:42.372Z,100467.72
2022-07-31T23:02:44.631Z,100460.78
2022-07-31T23:07:46.084Z,100474.50
2022-07-31T23:12:47.572Z,100478.16
2022-07-31T23:17:49.050Z,100482.44
2022-07-31T23:22:50.496Z,100486.22
2022-07-31T23:27:51.965Z,100482.84
2022-07-31T23:32:53.540Z,100483.19
2022-07-31T23:37:55.038Z,100481.84
2022-07-31T23:42:56.488Z,100473.47
2022-07-31T23:47:58.867Z,100473.50
2022-07-31T23:53:00.653Z,100471.63
2022-07-31T23:58:02.115Z,100468.31
